Time;durP1;ratioP1;P1;durP2;ratioP2;P2;SDS_P1;SDS_P2;PMS_P1;PMS_P2;Temp;Humidity;BMP_temperature;BMP_pressure;BME280_temperature;BME280_humidity;BME280_pressure;Samples;Min_cycle;Max_cycle;Signal;HPM_P1;HPM_P2
2022/06/28 00:04:34;;;;;;;12.80;10.88;;;;;;;16.47;99.32;97888.56;10415956;28;20072;-57
2022/06/28 00:09:33;;;;;;;15.75;10.60;;;;;;;16.44;98.87;97893.88;10416186;28;20044;-56
2022/06/28 00:19:49;;;;;;;16.75;10.32;;;;;;;16.27;99.28;97891.63;10417032;28;19954;-56
2022/06/28 00:24:48;;;;;;;15.25;11.13;;;;;;;16.26;98.89;97883.81;10415234;28;20040;-56
2022/06/28 00:29:47;;;;;;;20.30;11.98;;;;;;;16.34;98.81;97892.34;10420845;28;20079;-57
2022/06/28 00:34:47;;;;;;;16.67;11.68;;;;;;;16.33;98.50;97882.78;10457273;28;20067;-56
2022/06/28 00:39:46;;;;;;;17.42;12.07;;;;;;;16.34;98.67;97879.25;10439044;28;20464;-56
2022/06/28 00:44:45;;;;;;;;;;;;;;;16.32;98.69;97894.13;10414482;28;20733;-57
2022/06/28 00:49:45;;;;;;;16.30;10.02;;;;;;;15.88;100.00;97906.41;10414834;28;19947;-57
2022/06/28 00:54:44;;;;;;;13.85;9.73;;;;;;;15.65;100.00;97901.59;10414588;28;20075;-56
2022/06/28 00:59:43;;;;;;;;;;;;;;;15.45;100.00;97902.81;10397658;28;20037;-56
2022/06/28 01:04:42;;;;;;;14.27;10.50;;;;;;;15.37;100.00;97912.56;10414083;28;19943;-56
2022/06/28 01:09:40;;;;;;;;;;;;;;;15.42;100.00;97904.63;10415022;28;20040;-56
2022/06/28 01:14:39;;;;;;;14.23;10.60;;;;;;;15.44;100.00;97906.31;10414117;28;19914;-56
2022/06/28 01:19:38;;;;;;;;;;;;;;;15.46;100.00;97911.53;10414243;28;20048;-56
2022/06/28 01:24:37;;;;;;;13.57;10.70;;;;;;;15.47;100.00;97892.34;10413771;28;19967;-56
2022/06/28 01:29:36;;;;;;;17.17;11.82;;;;;;;15.50;100.00;97884.41;10442171;28;20075;-56
2022/06/28 01:34:35;;;;;;;17.75;12.15;;;;;;;15.54;100.00;97880.00;10454910;28;20458;-56
2022/06/28 01:39:34;;;;;;;20.58;14.07;;;;;;;15.59;100.00;97886.00;10438099;28;20056;-56
2022/06/28 01:44:34;;;;;;;;;;;;;;;15.60;100.00;97883.38;10413359;28;20029;-56
2022/06/28 01:49:33;;;;;;;18.00;13.45;;;;;;;15.62;100.00;97897.28;10412948;28;20407;-56
2022/06/28 01:54:32;;;;;;;;;;;;;;;15.59;100.00;97902.56;10412963;28;20561;-56
2022/06/28 01:59:31;;;;;;;21.03;14.43;;;;;;;15.61;100.00;97889.47;10413199;28;20379;-56
2022/06/28 02:04:30;;;;;;;;;;;;;;;15.61;100.00;97890.31;10413183;28;20507;-56
2022/06/28 02:09:29;;;;;;;20.50;13.73;;;;;;;15.54;100.00;97878.25;10424180;28;19920;-56
2022/06/28 02:14:28;;;;;;;21.63;14.98;;;;;;;15.63;100.00;97882.44;10425689;28;20076;-56
2022/06/28 02:19:27;;;;;;;;;;;;;;;15.66;100.00;97892.84;10426699;28;20071;-56
2022/06/28 02:24:26;;;;;;;21.03;15.17;;;;;;;15.68;100.00;97899.78;10424955;28;19999;-56
2022/06/28 02:29:25;;;;;;;21.77;13.88;;;;;;;15.68;100.00;97897.16;10453002;28;20102;-57
2022/06/28 02:44:59;;;;;;;18.73;13.38;;;;;;;15.65;100.00;97889.38;10426164;28;20075;-57
2022/06/28 02:49:57;;;;;;;;;;;;;;;15.53;100.00;97899.19;10426125;28;20037;-59
2022/06/28 02:54:56;;;;;;;22.67;13.80;;;;;;;15.49;100.00;97890.56;10425516;28;20427;-59
2022/06/28 02:59:55;;;;;;;;;;;;;;;15.50;100.00;97892.25;10424774;28;20493;-59
2022/06/28 03:04:54;;;;;;;19.02;12.23;;;;;;;15.38;100.00;97900.34;10425183;28;19938;-59
2022/06/28 03:09:53;;;;;;;;;;;;;;;15.36;100.00;97889.03;10426701;28;20098;-59
2022/06/28 03:14:52;;;;;;;19.05;13.70;;;;;;;15.27;100.00;97897.03;10425087;28;20284;-59
2022/06/28 03:19:51;;;;;;;19.60;13.55;;;;;;;15.31;100.00;97907.44;10419256;28;20503;-59
2022/06/28 03:24:50;;;;;;;;;;;;;;;15.36;100.00;97900.34;10418451;28;20040;-59
2022/06/28 03:29:51;;;;;;;20.98;13.55;;;;;;;15.48;100.00;97904.50;10424387;28;19970;-56
2022/06/28 03:34:50;;;;;;;22.20;15.13;;;;;;;15.56;100.00;97893.91;10459228;28;20064;-56
2022/06/28 03:39:49;;;;;;;25.77;14.57;;;;;;;15.63;100.00;97895.53;10441527;28;20511;-56
2022/06/28 03:44:48;;;;;;;23.98;15.70;;;;;;;15.65;100.00;97902.44;10417699;28;20071;-56
2022/06/28 03:49:48;;;;;;;23.20;16.13;;;;;;;15.72;100.00;97891.88;10417026;28;20567;-56
2022/06/28 03:54:47;;;;;;;24.55;16.42;;;;;;;15.83;100.00;97903.91;10417223;28;20071;-56
2022/06/28 03:59:46;;;;;;;;;;;;;;;15.86;100.00;97908.19;10417582;28;20041;-56
2022/06/28 04:04:45;;;;;;;24.33;13.57;;;;;;;15.88;100.00;97914.28;10416845;28;20336;-56
2022/06/28 04:09:44;;;;;;;;;;;;;;;15.92;100.00;97921.16;10416974;28;20052;-57
2022/06/28 04:14:42;;;;;;;19.75;13.75;;;;;;;15.97;100.00;97919.28;10416535;28;20519;-56
2022/06/28 04:19:41;;;;;;;;;;;;;;;15.98;100.00;97917.56;10416707;28;20491;-56
2022/06/28 04:24:40;;;;;;;18.40;13.70;;;;;;;16.04;100.00;97922.66;10415878;28;20003;-56
2022/06/28 04:29:39;;;;;;;;;;;;;;;16.23;100.00;97915.28;10444938;28;20052;-57
2022/06/28 04:34:38;;;;;;;35.67;23.85;;;;;;;16.24;100.00;97915.25;10456753;28;19912;-56
2022/06/28 04:39:37;;;;;;;;;;;;;;;16.39;100.00;97915.81;10441683;28;20543;-57
2022/06/28 04:44:38;;;;;;;25.35;15.05;;;;;;;16.41;100.00;97925.38;10414795;28;19951;-56
2022/06/28 04:49:37;;;;;;;17.65;14.02;;;;;;;16.57;100.00;97930.28;10410970;28;20095;-56
2022/06/28 04:54:36;;;;;;;18.20;12.93;;;;;;;16.78;100.00;97928.94;10411867;28;20076;-56
2022/06/28 04:59:35;;;;;;;14.75;11.88;;;;;;;16.92;100.00;97925.13;10412314;28;20075;-59
2022/06/28 05:04:34;;;;;;;17.35;12.07;;;;;;;17.01;99.50;97928.44;10413832;28;20115;-59
2022/06/28 05:09:33;;;;;;;;;;;;;;;17.26;99.06;97932.19;10414581;28;20086;-59
2022/06/28 05:14:32;;;;;;;16.53;12.67;;;;;;;17.51;98.11;97926.28;10413541;28;20011;-59
2022/06/28 05:19:33;;;;;;;17.20;12.05;;;;;;;17.75;97.08;97909.00;10413625;28;20080;-59
2022/06/28 05:24:32;;;;;;;14.48;11.02;;;;;;;18.06;96.23;97911.69;10411120;28;20064;-59
2022/06/28 05:29:31;;;;;;;15.25;10.88;;;;;;;18.30;95.12;97909.25;10411557;28;20116;-59
2022/06/28 05:34:30;;;;;;;18.80;11.23;;;;;;;18.55;93.75;97897.09;10412746;28;20068;-59
2022/06/28 05:39:29;;;;;;;15.63;11.40;;;;;;;18.82;93.18;97915.56;10411421;28;20531;-59
2022/06/28 05:44:28;;;;;;;13.68;10.05;;;;;;;18.97;92.03;97916.84;10410814;28;20499;-59
2022/06/28 05:49:27;;;;;;;16.15;10.68;;;;;;;19.04;89.11;97921.00;10411624;28;20038;-59
2022/06/28 05:54:26;;;;;;;12.77;9.68;;;;;;;19.27;89.66;97928.13;10412106;28;20044;-57
2022/06/28 05:59:27;;;;;;;13.43;9.85;;;;;;;19.25;88.36;97919.41;10412037;28;20029;-56
2022/06/28 06:04:26;;;;;;;13.30;10.02;;;;;;;19.47;88.40;97929.25;10412007;28;20076;-57
2022/06/28 06:09:25;;;;;;;11.60;9.85;;;;;;;19.72;86.57;97917.00;10412335;28;20076;-57
2022/06/28 06:14:24;;;;;;;14.02;9.88;;;;;;;20.02;85.73;97930.81;10411863;28;20035;-57
2022/06/28 06:19:23;;;;;;;12.30;9.50;;;;;;;20.22;84.50;97913.44;10411656;28;20028;-57
2022/06/28 06:24:22;;;;;;;12.63;9.00;;;;;;;20.34;82.81;97917.38;10411449;28;20478;-59
2022/06/28 06:29:21;;;;;;;12.63;8.73;;;;;;;20.63;82.58;97914.53;10411376;28;20314;-57
2022/06/28 06:34:20;;;;;;;11.73;8.73;;;;;;;20.92;82.12;97907.22;10411361;28;20024;-57
2022/06/28 06:39:19;;;;;;;9.93;8.40;;;;;;;21.12;80.17;97902.00;10411403;28;20028;-57
2022/06/28 06:44:18;;;;;;;11.85;8.35;;;;;;;21.31;78.52;97894.22;10410433;28;20274;-57
2022/06/28 06:49:17;;;;;;;11.82;8.90;;;;;;;21.64;78.75;97893.69;10410924;28;20110;-57
2022/06/28 06:54:17;;;;;;;11.65;8.13;;;;;;;21.94;77.86;97880.03;10414581;28;20072;-57
2022/06/28 06:59:16;;;;;;;9.10;7.90;;;;;;;22.14;76.01;97882.66;10418230;28;20318;-57
2022/06/28 07:04:16;;;;;;;14.85;8.73;;;;;;;22.19;74.30;97885.09;10416894;28;20488;-57
2022/06/28 07:09:15;;;;;;;10.52;7.80;;;;;;;22.38;73.81;97880.66;10417235;28;20068;-57
2022/06/28 07:14:14;;;;;;;11.10;7.97;;;;;;;22.57;72.28;97885.09;10417970;28;20196;-57
2022/06/28 07:19:14;;;;;;;10.82;7.25;;;;;;;22.83;72.03;97885.66;10417798;28;20039;-57
2022/06/28 07:24:13;;;;;;;11.25;8.00;;;;;;;23.14;71.07;97880.59;10416880;28;20522;-57
2022/06/28 07:29:14;;;;;;;11.27;8.23;;;;;;;23.39;68.36;97874.03;10417334;28;20023;-57
2022/06/28 07:34:13;;;;;;;10.40;7.22;;;;;;;23.43;66.56;97865.84;10416743;28;20523;-57
2022/06/28 07:39:12;;;;;;;11.20;8.02;;;;;;;23.71;67.06;97863.59;10416903;28;20540;-57
2022/06/28 07:44:11;;;;;;;10.45;7.05;;;;;;;23.94;66.46;97863.25;10416995;28;20419;-57
2022/06/28 07:49:10;;;;;;;7.97;7.18;;;;;;;23.94;62.76;97880.94;10416581;28;20068;-57
2022/06/28 07:54:09;;;;;;;9.23;6.80;;;;;;;24.04;59.58;97871.56;10416594;28;20042;-57
2022/06/28 07:59:08;;;;;;;7.65;6.88;;;;;;;24.28;62.48;97877.34;10416852;28;20106;-57
2022/06/28 08:04:08;;;;;;;9.00;7.20;;;;;;;24.46;58.65;97873.69;10415220;28;20443;-57
2022/06/28 08:09:06;;;;;;;8.77;6.80;;;;;;;24.76;59.30;97859.66;10415241;28;20091;-57
2022/06/28 08:14:05;;;;;;;7.45;6.57;;;;;;;25.03;55.95;97859.88;10415535;28;20028;-57
2022/06/28 08:19:05;;;;;;;9.07;6.60;;;;;;;25.22;55.12;97862.34;10414774;28;20601;-58
2022/06/28 08:24:04;;;;;;;9.07;7.50;;;;;;;25.26;53.48;97847.06;10415182;28;20072;-58
2022/06/28 08:29:04;;;;;;;9.20;6.38;;;;;;;25.56;55.01;97855.03;10414957;28;20068;-58
2022/06/28 08:34:03;;;;;;;7.80;6.90;;;;;;;25.72;54.11;97855.81;10415059;28;20566;-58
2022/06/28 08:39:03;;;;;;;9.93;7.07;;;;;;;25.71;52.51;97859.44;10414168;28;20564;-58
2022/06/28 08:44:02;;;;;;;9.52;6.80;;;;;;;25.93;54.19;97863.41;10414593;28;20067;-58
2022/06/28 08:49:06;;;;;;;8.77;7.25;;;;;;;26.03;54.19;97859.22;10414214;28;20061;-58
2022/06/28 08:54:06;;;;;;;12.93;6.97;;;;;;;26.21;52.08;97856.44;10414153;28;20068;-58
2022/06/28 08:59:06;;;;;;;6.70;6.07;;;;;;;26.22;51.35;97840.34;10414388;28;20091;-58
2022/06/28 09:04:08;;;;;;;7.15;5.80;;;;;;;26.38;50.74;97853.53;10413048;28;20528;-58
2022/06/28 09:09:07;;;;;;;8.45;5.38;;;;;;;26.57;50.35;97851.38;10413802;28;20067;-58
2022/06/28 09:14:24;;;;;;;6.65;5.57;;;;;;;26.60;49.94;97852.16;10413082;28;20049;-58
2022/06/28 09:19:40;;;;;;;7.15;5.43;;;;;;;26.74;50.07;97849.44;10411534;28;20059;-58
2022/06/28 09:24:44;;;;;;;6.88;5.40;;;;;;;26.66;48.20;97846.44;10394729;28;20072;-58
2022/06/28 09:29:47;;;;;;;7.22;5.50;;;;;;;26.83;49.11;97843.53;10412085;28;20638;-58
2022/06/28 09:35:01;;;;;;;6.28;5.63;;;;;;;26.88;48.32;97848.56;10408280;28;20060;-58
2022/06/28 09:40:17;;;;;;;9.55;6.05;;;;;;;27.06;48.33;97834.03;10411186;28;20087;-58
2022/06/28 09:45:16;;;;;;;10.70;6.13;;;;;;;27.36;48.55;97831.09;10412134;28;20182;-58
2022/06/28 09:50:20;;;;;;;6.72;5.50;;;;;;;27.39;46.47;97833.56;10412655;28;20076;-58
2022/06/28 09:55:19;;;;;;;10.82;6.15;;;;;;;27.25;48.33;97830.97;10412052;28;20139;-58
2022/06/28 10:00:21;;;;;;;5.78;5.07;;;;;;;27.16;47.49;97829.78;10412184;28;20079;-58
2022/06/28 10:05:20;;;;;;;7.65;5.60;;;;;;;27.06;47.73;97823.38;10411574;28;20076;-58
2022/06/28 10:10:22;;;;;;;6.18;5.22;;;;;;;27.14;48.31;97821.06;10411925;28;20078;-58
2022/06/28 10:15:23;;;;;;;6.57;5.65;;;;;;;27.26;47.43;97814.06;10410928;28;20079;-58
2022/06/28 10:20:28;;;;;;;7.72;5.43;;;;;;;27.20;47.11;97814.47;10411405;28;20622;-58
2022/06/28 10:25:27;;;;;;;6.47;5.35;;;;;;;27.35;45.77;97815.22;10419497;28;20819;-58
2022/06/28 10:30:28;;;;;;;5.72;5.13;;;;;;;27.49;46.36;97800.97;10459590;28;20123;-58
2022/06/28 10:35:33;;;;;;;9.30;5.22;;;;;;;27.56;45.25;97794.25;10460942;28;20067;-58
2022/06/28 10:40:49;;;;;;;5.57;5.07;;;;;;;27.78;45.33;97793.63;10460530;28;20072;-58
2022/06/28 10:46:00;;;;;;;6.88;5.43;;;;;;;27.95;44.05;97792.41;10408192;28;20564;-58
2022/06/28 10:51:02;;;;;;;6.65;5.70;;;;;;;28.08;44.86;97774.63;10396719;28;20077;-58
2022/06/28 10:56:10;;;;;;;6.85;5.90;;;;;;;28.08;40.72;97776.41;10402701;28;20059;-58
2022/06/28 11:01:09;;;;;;;7.15;6.22;;;;;;;28.29;41.50;97779.34;10403546;28;20060;-58
2022/06/28 11:06:08;;;;;;;8.60;7.70;;;;;;;28.34;40.32;97764.72;10417196;28;20067;-59
2022/06/28 11:11:08;;;;;;;7.25;6.55;;;;;;;28.51;40.61;97774.13;10418289;28;20068;-58
2022/06/28 11:16:10;;;;;;;7.75;6.25;;;;;;;28.64;40.67;97758.03;10415107;28;20079;-58
2022/06/28 11:21:09;;;;;;;9.45;6.15;;;;;;;28.41;40.58;97751.78;10418121;28;20527;-58
2022/06/28 11:31:42;;;;;;;8.57;5.68;;;;;;;28.38;41.03;97760.81;10418144;28;20594;-58
2022/06/28 11:36:44;;;;;;;6.63;5.00;;;;;;;28.78;41.73;97757.03;10416889;28;20075;-58
2022/06/28 11:41:50;;;;;;;8.00;5.00;;;;;;;28.58;42.18;97755.84;10416077;28;20499;-58
2022/06/28 11:46:51;;;;;;;8.27;4.72;;;;;;;28.59;42.77;97758.38;10416482;28;20076;-58
2022/06/28 11:51:50;;;;;;;5.15;4.65;;;;;;;28.55;42.73;97756.94;10418012;28;20095;-58
2022/06/28 11:56:49;;;;;;;5.63;5.05;;;;;;;28.63;43.37;97769.69;10420153;28;20035;-58
2022/06/28 12:01:48;;;;;;;8.45;5.00;;;;;;;28.74;42.30;97774.28;10401389;28;20495;-58
2022/06/28 12:06:47;;;;;;;7.75;5.22;;;;;;;28.88;42.14;97768.75;10419807;28;20561;-58
2022/06/28 12:11:56;;;;;;;6.10;5.20;;;;;;;28.95;41.56;97766.47;10419092;28;20177;-58
2022/06/28 12:16:55;;;;;;;6.60;5.07;;;;;;;28.66;40.23;97758.78;10419369;28;20127;-58
2022/06/28 12:21:59;;;;;;;6.90;5.18;;;;;;;28.84;38.96;97756.59;10418387;28;20569;-58
2022/06/28 12:26:58;;;;;;;5.00;4.45;;;;;;;29.17;39.30;97760.34;10418806;28;20080;-58
2022/06/28 12:31:57;;;;;;;6.82;4.40;;;;;;;29.48;36.76;97750.81;10418514;28;20098;-58
2022/06/28 12:36:56;;;;;;;5.15;4.57;;;;;;;29.83;36.71;97721.25;10417791;28;20496;-58
2022/06/28 12:41:55;;;;;;;4.60;4.20;;;;;;;30.22;36.72;97735.09;10418248;28;20059;-58
2022/06/28 12:46:54;;;;;;;7.75;4.30;;;;;;;30.10;37.25;97725.41;10417781;28;20107;-58
2022/06/28 12:51:53;;;;;;;4.70;4.28;;;;;;;30.14;36.58;97724.19;10416508;28;20056;-58
2022/06/28 12:56:52;;;;;;;4.20;3.50;;;;;;;30.14;35.64;97718.84;10414047;28;20031;-58
2022/06/28 13:01:51;;;;;;;4.25;3.60;;;;;;;30.01;33.20;97702.91;10414204;28;20449;-58
2022/06/28 13:06:50;;;;;;;4.85;3.53;;;;;;;30.28;33.34;97690.91;10413661;28;20464;-58
2022/06/28 13:11:49;;;;;;;4.50;3.15;;;;;;;30.29;32.54;97656.00;10413784;28;20071;-58
2022/06/28 13:16:48;;;;;;;4.20;3.05;;;;;;;30.34;31.63;97675.19;10413633;28;20020;-58
2022/06/28 13:21:48;;;;;;;3.58;3.10;;;;;;;30.33;30.96;97668.16;10413643;28;20047;-58
2022/06/28 13:26:46;;;;;;;3.63;2.95;;;;;;;30.68;31.44;97660.81;10412710;28;20076;-58
2022/06/28 13:31:46;;;;;;;5.00;4.00;;;;;;;30.84;33.30;97658.53;10412808;28;20381;-58
2022/06/28 13:36:45;;;;;;;5.60;3.90;;;;;;;30.29;33.94;97661.34;10412452;28;20075;-58
2022/06/28 13:41:44;;;;;;;5.72;3.63;;;;;;;30.04;34.44;97661.66;10393915;28;20041;-58
2022/06/28 13:46:44;;;;;;;4.85;3.80;;;;;;;30.09;35.74;97657.66;10412075;28;20471;-58
2022/06/28 13:51:42;;;;;;;5.00;4.00;;;;;;;30.18;36.52;97650.69;10411834;28;20076;-58
2022/06/28 13:56:42;;;;;;;5.93;4.75;;;;;;;30.15;36.21;97656.28;10412275;28;20108;-58
2022/06/28 14:01:42;;;;;;;3.78;3.47;;;;;;;30.21;34.92;97644.22;10411725;28;20071;-58
2022/06/28 14:06:41;;;;;;;4.57;3.13;;;;;;;30.30;31.95;97636.28;10411414;28;20068;-58
2022/06/28 14:11:40;;;;;;;5.07;4.00;;;;;;;30.37;32.96;97639.28;10411993;28;20064;-58
2022/06/28 14:16:39;;;;;;;4.38;3.97;;;;;;;30.45;33.94;97638.69;10411695;28;20107;-58
2022/06/28 14:21:38;;;;;;;5.07;4.55;;;;;;;30.31;34.73;97631.78;10411893;28;20029;-58
2022/06/28 14:26:37;;;;;;;6.60;4.50;;;;;;;30.48;34.47;97639.25;10411691;28;20071;-58
2022/06/28 14:31:37;;;;;;;5.70;5.00;;;;;;;30.40;34.79;97625.69;10411047;28;20469;-58
2022/06/28 14:36:36;;;;;;;5.75;4.97;;;;;;;30.64;34.60;97628.09;10410568;28;20072;-58
2022/06/28 14:41:35;;;;;;;5.13;4.63;;;;;;;30.50;35.07;97642.66;10411205;28;20115;-58
2022/06/28 14:46:34;;;;;;;5.68;4.60;;;;;;;30.40;34.75;97635.50;10411155;28;20080;-58
2022/06/28 14:51:33;;;;;;;5.75;5.03;;;;;;;30.30;35.06;97633.63;10411225;28;20036;-58
2022/06/28 14:56:32;;;;;;;6.25;4.78;;;;;;;30.49;35.72;97649.00;10410280;28;20037;-58
2022/06/28 15:01:31;;;;;;;5.60;5.00;;;;;;;30.72;35.05;97628.28;10410730;28;20056;-58
2022/06/28 15:06:30;;;;;;;6.88;5.43;;;;;;;30.56;35.12;97630.56;10392052;28;20137;-58
2022/06/28 15:11:30;;;;;;;9.80;6.05;;;;;;;30.09;36.11;97638.06;10409016;28;20040;-58
2022/06/28 15:16:30;;;;;;;6.75;5.70;;;;;;;29.62;37.29;97634.72;10416112;28;20080;-58
2022/06/28 15:32:05;;;;;;;6.63;5.93;;;;;;;28.40;40.70;97636.13;10417677;28;20718;-58
2022/06/28 15:37:04;;;;;;;9.20;5.60;;;;;;;28.03;41.11;97660.22;10416606;28;20079;-58
2022/06/28 15:42:06;;;;;;;7.40;5.10;;;;;;;27.80;42.07;97659.22;10398387;28;20068;-58
2022/06/28 15:47:05;;;;;;;7.47;5.68;;;;;;;27.57;42.25;97662.69;10416293;28;20084;-58
2022/06/28 15:52:05;;;;;;;8.07;5.70;;;;;;;26.90;47.12;97802.25;10416280;28;20064;-58
2022/06/28 15:57:04;;;;;;;9.23;4.03;;;;;;;22.16;66.88;97885.25;10415105;28;20071;-60
2022/06/28 16:02:04;;;;;;;6.65;4.25;;;;;;;20.18;79.34;97912.66;10416163;28;20075;-61
2022/06/28 16:07:03;;;;;;;12.25;8.00;;;;;;;19.22;87.86;97964.25;10415571;28;20078;-61
2022/06/28 16:17:20;;;;;;;10.48;8.52;;;;;;;18.03;100.00;98057.97;10416021;28;20075;-62
2022/06/28 16:22:19;;;;;;;17.05;11.43;;;;;;;17.91;100.00;98040.75;10397271;28;20125;-61
2022/06/28 16:27:18;;;;;;;16.20;12.38;;;;;;;17.96;100.00;98052.00;10414673;28;20070;-62
2022/06/28 16:32:17;;;;;;;16.88;11.23;;;;;;;18.02;100.00;98054.47;10412853;28;20044;-62
2022/06/28 16:37:16;;;;;;;14.48;11.20;;;;;;;17.97;100.00;98041.47;10414855;28;20028;-62
2022/06/28 16:42:15;;;;;;;16.23;11.43;;;;;;;17.84;100.00;97984.06;10414389;28;20071;-62
2022/06/28 16:47:14;;;;;;;18.38;12.32;;;;;;;17.92;100.00;97979.50;10414418;28;20514;-62
2022/06/28 16:52:14;;;;;;;15.85;11.65;;;;;;;17.81;100.00;97974.50;10415936;28;20067;-62
2022/06/28 16:57:14;;;;;;;19.13;13.25;;;;;;;17.75;100.00;97944.03;10418019;28;20017;-63
2022/06/28 17:02:13;;;;;;;20.80;12.68;;;;;;;17.65;100.00;97949.53;10417649;28;20281;-63
2022/06/28 17:07:21;;;;;;;16.35;12.70;;;;;;;17.42;100.00;97937.00;10416791;28;20361;-63
2022/06/28 17:12:21;;;;;;;18.10;12.95;;;;;;;17.42;100.00;97937.88;10417278;28;20072;-63
2022/06/28 17:17:23;;;;;;;16.23;11.95;;;;;;;17.34;100.00;97939.84;10417303;28;20052;-64
2022/06/28 17:22:26;;;;;;;19.08;12.20;;;;;;;17.32;100.00;97947.75;10416509;28;20064;-64
2022/06/28 17:27:25;;;;;;;17.50;12.77;;;;;;;17.33;100.00;97923.25;10431530;28;20044;-64
2022/06/28 17:32:24;;;;;;;17.30;12.27;;;;;;;17.46;100.00;97922.94;10415141;28;20083;-64
2022/06/28 17:37:24;;;;;;;16.15;12.40;;;;;;;17.51;100.00;97937.63;10415707;28;20024;-64
2022/06/28 17:42:23;;;;;;;17.50;11.93;;;;;;;17.49;100.00;97933.34;10415907;28;20064;-64
2022/06/28 17:47:22;;;;;;;21.30;14.40;;;;;;;17.55;100.00;97943.69;10415895;28;20075;-64
2022/06/28 17:52:22;;;;;;;22.63;15.85;;;;;;;17.58;100.00;97933.09;10414326;28;20365;-64
2022/06/28 17:57:22;;;;;;;18.42;13.02;;;;;;;17.53;100.00;97921.88;10411967;28;20073;-64
2022/06/28 18:02:21;;;;;;;18.17;12.65;;;;;;;17.46;100.00;97918.53;10412177;28;20538;-64
2022/06/28 18:07:20;;;;;;;16.58;11.88;;;;;;;17.38;100.00;97924.88;10411853;28;20510;-64
2022/06/28 18:12:21;;;;;;;;;;;;;;;17.30;100.00;97918.06;10412127;28;20094;-66
2022/06/28 18:17:20;;;;;;;16.23;11.43;;;;;;;17.15;100.00;97907.97;10412063;28;19951;-66
2022/06/28 18:22:19;;;;;;;16.50;12.15;;;;;;;17.17;100.00;97924.53;10411523;28;20498;-66
2022/06/28 18:27:20;;;;;;;19.20;13.60;;;;;;;17.11;100.00;97924.66;10411705;28;20126;-66
2022/06/28 18:32:19;;;;;;;18.85;14.02;;;;;;;17.07;100.00;97912.53;10411661;28;20083;-65
2022/06/28 18:37:18;;;;;;;17.92;12.85;;;;;;;17.03;100.00;97909.13;10411699;28;20036;-64
2022/06/28 18:42:17;;;;;;;19.48;14.10;;;;;;;16.93;100.00;97908.50;10426469;28;20082;-64
2022/06/28 18:47:16;;;;;;;17.60;12.77;;;;;;;16.95;100.00;97925.94;10393617;28;20055;-63
2022/06/28 18:52:15;;;;;;;20.50;14.57;;;;;;;16.97;100.00;97935.50;10419050;28;20067;-62
2022/06/28 18:57:15;;;;;;;21.02;15.45;;;;;;;16.92;100.00;97935.59;10418859;28;20020;-62
2022/06/28 19:02:14;;;;;;;20.83;14.80;;;;;;;16.72;100.00;97951.78;10413455;28;20068;-62
2022/06/28 19:07:14;;;;;;;19.70;14.30;;;;;;;16.50;100.00;97940.03;10414039;28;20098;-62
2022/06/28 19:12:14;;;;;;;20.67;14.43;;;;;;;16.58;100.00;97937.22;10418327;28;20066;-62
2022/06/28 19:17:13;;;;;;;22.08;14.55;;;;;;;16.63;100.00;97945.84;10416094;28;20073;-62
2022/06/28 19:22:12;;;;;;;24.20;15.02;;;;;;;16.63;100.00;97946.72;10413315;28;20033;-62
2022/06/28 19:27:13;;;;;;;22.65;15.10;;;;;;;16.63;100.00;97951.09;10417683;28;20485;-63
2022/06/28 19:32:14;;;;;;;27.05;16.30;;;;;;;16.60;100.00;97961.63;10416090;28;20083;-62
2022/06/28 19:37:13;;;;;;;26.08;17.77;;;;;;;16.59;100.00;97962.56;10417544;28;20544;-62
2022/06/28 19:42:12;;;;;;;23.75;16.95;;;;;;;16.61;100.00;97963.38;10417166;28;20504;-62
2022/06/28 19:47:11;;;;;;;27.80;18.13;;;;;;;16.63;100.00;97969.44;10409767;28;20020;-62
2022/06/28 19:52:10;;;;;;;;;;;;;;;16.65;100.00;97965.00;10416540;28;20039;-62
2022/06/28 19:57:09;;;;;;;23.50;15.13;;;;;;;16.65;100.00;97970.25;10419829;28;20353;-62
2022/06/28 20:02:08;;;;;;;;;;;;;;;16.58;100.00;97979.16;10418541;28;20024;-62
2022/06/28 20:07:07;;;;;;;21.40;14.00;;;;;;;16.50;100.00;97976.69;10419651;28;19982;-62
2022/06/28 20:12:07;;;;;;;19.35;13.18;;;;;;;16.35;100.00;97985.75;10419035;28;20484;-62
2022/06/28 20:17:07;;;;;;;16.83;12.57;;;;;;;16.23;100.00;97983.34;10398177;28;20072;-62
2022/06/28 20:22:07;;;;;;;20.55;14.23;;;;;;;16.20;100.00;97986.06;10387998;28;20075;-62
2022/06/28 20:27:06;;;;;;;20.52;13.88;;;;;;;16.14;100.00;97983.53;10410330;28;20064;-63
2022/06/28 20:32:05;;;;;;;;;;;;;;;16.09;100.00;97989.75;10406062;28;20041;-63
2022/06/28 20:37:04;;;;;;;22.13;14.83;;;;;;;16.02;100.00;97987.25;10419300;28;19958;-63
2022/06/28 20:42:12;;;;;;;;;;;;;;;15.99;100.00;97989.94;10379997;28;20024;-63
2022/06/28 20:47:11;;;;;;;24.42;14.60;;;;;;;15.95;100.00;97993.50;10376850;28;19987;-62
2022/06/28 21:10:52;;;;;;;30.10;17.43;;;;;;;15.74;100.00;98010.44;10579241;27;20864;-63
2022/06/28 21:15:51;;;;;;;;;;;;;;;15.73;100.00;98019.19;10579498;27;20069;-63
2022/06/28 21:20:51;;;;;;;25.30;14.88;;;;;;;15.71;100.00;98010.50;10579439;27;19947;-63
2022/06/28 21:25:50;;;;;;;26.00;16.67;;;;;;;15.62;100.00;98015.00;10579408;27;20494;-63
2022/06/28 21:30:49;;;;;;;24.10;16.13;;;;;;;15.54;100.00;98009.03;10578680;27;20057;-63
2022/06/28 21:35:48;;;;;;;;;;;;;;;15.44;100.00;98012.69;10579164;27;20033;-63
2022/06/28 21:40:47;;;;;;;22.55;15.25;;;;;;;15.38;100.00;98018.88;10577782;27;19911;-63
2022/06/28 21:45:46;;;;;;;28.00;15.57;;;;;;;15.36;100.00;98035.47;10577826;27;20485;-63
2022/06/28 21:50:45;;;;;;;25.23;15.57;;;;;;;15.32;100.00;98034.69;10577511;27;20055;-63
2022/06/28 21:55:44;;;;;;;;;;;;;;;15.29;100.00;98018.16;10578037;27;20054;-63
2022/06/28 22:00:44;;;;;;;28.07;16.43;;;;;;;15.27;100.00;98017.31;10577625;27;19946;-63
2022/06/28 22:05:43;;;;;;;25.02;15.73;;;;;;;15.26;100.00;98019.06;10576241;27;20054;-63
2022/06/28 22:10:42;;;;;;;28.20;17.25;;;;;;;15.23;100.00;98022.59;10554306;27;20081;-63
2022/06/28 22:15:41;;;;;;;;;;;;;;;15.19;100.00;98025.28;10548509;27;20031;-63
2022/06/28 22:20:40;;;;;;;28.52;15.98;;;;;;;15.16;100.00;98015.75;10547745;27;19960;-62
2022/06/28 22:25:39;;;;;;;;;;;;;;;15.09;100.00;98014.09;10548137;27;20051;-62
2022/06/28 22:30:37;;;;;;;28.60;17.15;;;;;;;15.04;100.00;98023.78;10547680;27;19937;-62
2022/06/28 22:35:36;;;;;;;;;;;;;;;14.91;100.00;98023.06;10547675;27;20027;-62
2022/06/28 22:40:35;;;;;;;34.30;18.50;;;;;;;14.96;100.00;98009.94;10547071;27;20025;-62
2022/06/28 22:45:34;;;;;;;33.97;19.70;;;;;;;15.01;100.00;98023.78;10546777;27;20477;-62
2022/06/28 22:50:33;;;;;;;;;;;;;;;15.01;100.00;98008.09;10547185;27;20063;-62
2022/06/28 22:55:32;;;;;;;33.50;18.85;;;;;;;15.01;100.00;98009.00;10546746;27;19956;-62
2022/06/28 23:00:32;;;;;;;33.28;18.40;;;;;;;14.99;100.00;98002.94;10546357;27;20055;-62
2022/06/28 23:05:31;;;;;;;33.13;19.05;;;;;;;14.98;100.00;97997.72;10546240;27;20066;-62
2022/06/28 23:15:47;;;;;;;39.22;20.05;;;;;;;14.95;100.00;97997.78;10545444;27;19965;-62
2022/06/28 23:20:46;;;;;;;;;;;;;;;15.00;100.00;98002.03;10545058;27;20035;-62
2022/06/28 23:25:45;;;;;;;51.08;26.17;;;;;;;15.09;100.00;98008.03;10545292;27;20381;-62
2022/06/28 23:30:45;;;;;;;53.33;26.23;;;;;;;15.18;100.00;98003.50;10544866;27;20065;-62
2022/06/28 23:35:44;;;;;;;56.30;27.65;;;;;;;15.32;100.00;98005.91;10545023;27;20074;-62
2022/06/28 23:40:43;;;;;;;70.38;29.85;;;;;;;15.38;100.00;97995.34;10544309;27;20085;-62
2022/06/28 23:45:42;;;;;;;;;;;;;;;15.43;100.00;98003.09;10544923;27;20402;-62
2022/06/28 23:50:41;;;;;;;82.78;30.50;;;;;;;15.46;100.00;98010.91;10544098;27;19994;-62
2022/06/28 23:55:39;;;;;;;;;;;;;;;15.35;100.00;98007.59;10544577;27;20106;-62
